Time;durP1;ratioP1;P1;durP2;ratioP2;P2;SDS_P1;SDS_P2;PMS_P1;PMS_P2;Temp;Humidity;BMP_temperature;BMP_pressure;BME280_temperature;BME280_humidity;BME280_pressure;Samples;Min_cycle;Max_cycle;Signal;HPM_P1;HPM_P2
2023/02/09 00:02:06;;;;;;;21.67;8.57;;;-2.10;1.00;;;;;;5012986;28;20399;-55
2023/02/09 00:04:33;;;;;;;22.93;9.37;;;-2.10;1.00;;;;;;5030351;28;21021;-55
2023/02/09 00:07:00;;;;;;;19.70;8.43;;;-2.20;1.00;;;;;;5031050;28;20410;-55
2023/02/09 00:09:25;;;;;;;22.90;9.30;;;-2.20;1.00;;;;;;5030184;28;20392;-55
2023/02/09 00:14:35;;;;;;;20.83;8.52;;;-2.30;1.00;;;;;;5030416;28;20392;-56
2023/02/09 00:17:01;;;;;;;25.58;10.07;;;-2.20;1.00;;;;;;5030538;28;20779;-55
2023/02/09 00:19:28;;;;;;;22.05;8.63;;;-2.20;99.90;;;;;;5029943;28;20395;-55
2023/02/09 00:21:54;;;;;;;20.13;8.65;;;-2.00;99.90;;;;;;5012851;28;20402;-56
2023/02/09 00:24:19;;;;;;;21.73;9.27;;;-2.00;99.90;;;;;;5029997;28;20390;-55
2023/02/09 00:26:45;;;;;;;21.75;7.97;;;-2.00;99.90;;;;;;5030538;28;20415;-56
2023/02/09 00:29:11;;;;;;;24.05;9.18;;;-2.00;1.00;;;;;;5030262;28;20399;-56
2023/02/09 00:31:37;;;;;;;21.58;8.98;;;-2.00;1.00;;;;;;5012368;28;20871;-56
2023/02/09 00:34:03;;;;;;;22.45;8.77;;;-2.10;1.00;;;;;;5026813;28;20403;-56
2023/02/09 00:36:30;;;;;;;22.90;9.00;;;-2.00;82.90;;;;;;5020865;28;20415;-55
2023/02/09 00:38:56;;;;;;;24.17;10.35;;;-2.20;99.90;;;;;;5030290;28;20407;-56
2023/02/09 00:44:06;;;;;;;19.07;7.93;;;-2.50;99.90;;;;;;5030004;28;20394;-55
2023/02/09 00:46:32;;;;;;;24.47;9.43;;;-2.40;99.90;;;;;;5029301;28;21059;-56
2023/02/09 00:48:58;;;;;;;20.25;8.85;;;-2.50;99.90;;;;;;5030602;28;20402;-56
2023/02/09 00:51:24;;;;;;;21.85;9.25;;;-2.30;99.90;;;;;;5029360;28;20407;-55
2023/02/09 00:53:50;;;;;;;22.63;9.20;;;-2.50;99.90;;;;;;5030326;28;20919;-56
2023/02/09 00:56:16;;;;;;;19.90;8.83;;;-2.40;99.90;;;;;;5029421;28;20434;-56
2023/02/09 00:58:41;;;;;;;18.15;8.75;;;-2.50;99.90;;;;;;5029968;28;20387;-56
2023/02/09 01:01:12;;;;;;;20.57;9.33;;;-2.50;1.00;;;;;;5029977;28;20399;-56
2023/02/09 01:03:38;;;;;;;27.73;10.75;;;-2.50;1.00;;;;;;5029274;28;20391;-56
2023/02/09 01:06:04;;;;;;;27.07;10.40;;;-2.60;1.00;;;;;;5029639;28;20387;-56
2023/02/09 01:08:29;;;;;;;22.23;9.00;;;-2.60;1.00;;;;;;5028480;28;20406;-55
2023/02/09 01:10:55;;;;;;;22.70;8.70;;;-2.50;1.00;;;;;;5029882;28;20738;-55
2023/02/09 01:13:20;;;;;;;21.17;8.40;;;-2.50;1.00;;;;;;5028949;28;20423;-55
2023/02/09 01:15:46;;;;;;;25.70;9.60;;;-2.60;1.00;;;;;;5030148;28;20387;-55
2023/02/09 01:18:12;;;;;;;26.05;9.68;;;-2.60;1.00;;;;;;5029576;28;20512;-55
2023/02/09 01:20:39;;;;;;;24.33;9.03;;;-2.60;99.90;;;;;;5029346;28;20383;-55
2023/02/09 01:23:05;;;;;;;27.77;10.90;;;-2.80;1.00;;;;;;5029913;28;20379;-55
2023/02/09 01:25:31;;;;;;;25.30;9.07;;;-2.60;1.00;;;;;;5029449;28;20866;-55
2023/02/09 01:27:56;;;;;;;26.58;9.32;;;-2.60;1.00;;;;;;5029651;28;20453;-56
2023/02/09 01:30:22;;;;;;;23.60;10.32;;;-2.50;1.00;;;;;;5011092;28;20399;-55
2023/02/09 01:32:48;;;;;;;22.20;9.33;;;-2.40;1.00;;;;;;5029611;28;20399;-55
2023/02/09 01:35:15;;;;;;;24.13;10.20;;;-2.30;1.00;;;;;;5029023;28;20884;-55
2023/02/09 01:37:40;;;;;;;20.77;9.20;;;-2.30;1.00;;;;;;5028918;28;20414;-55
2023/02/09 01:40:08;;;;;;;20.58;9.00;;;-1.50;1.00;;;;;;5029687;28;20752;-56
2023/02/09 01:42:33;;;;;;;23.13;9.10;;;-2.30;1.00;;;;;;5028411;28;20398;-55
2023/02/09 01:45:31;;;;;;;22.53;10.23;;;-2.60;1.00;;;;;;5028974;28;20461;-55
2023/02/09 01:48:03;;;;;;;21.27;8.60;;;-2.60;1.00;;;;;;5024404;28;20443;-55
2023/02/09 01:50:33;;;;;;;18.30;9.25;;;-2.70;1.00;;;;;;5028421;28;20481;-55
2023/02/09 01:53:00;;;;;;;20.45;9.00;;;-2.60;1.00;;;;;;5029342;28;20391;-55
2023/02/09 01:55:28;;;;;;;23.20;9.20;;;-2.50;1.00;;;;;;5032875;28;20415;-55
2023/02/09 01:58:09;;;;;;;26.10;10.57;;;-2.50;1.00;;;;;;5018063;28;20747;-55
2023/02/09 02:00:35;;;;;;;27.13;10.13;;;-2.70;1.00;;;;;;5035067;28;20847;-56
2023/02/09 02:03:06;;;;;;;22.45;10.75;;;-2.90;1.00;;;;;;5035859;28;20387;-55
2023/02/09 02:05:34;;;;;;;23.38;10.23;;;-2.80;1.00;;;;;;5035108;28;20395;-56
2023/02/09 02:08:27;;;;;;;22.20;9.23;;;-2.90;55.80;;;;;;5035935;28;20506;-56
2023/02/09 02:10:53;;;;;;;21.58;9.52;;;-2.80;77.80;;;;;;5035740;28;20404;-56
2023/02/09 02:13:19;;;;;;;23.90;9.97;;;-3.00;92.10;;;;;;5034593;28;20490;-56
2023/02/09 02:16:08;;;;;;;26.80;10.60;;;-3.10;99.90;;;;;;5036294;28;20528;-56
2023/02/09 02:18:41;;;;;;;23.40;9.35;;;-3.00;99.90;;;;;;5034604;28;20440;-56
2023/02/09 02:21:22;;;;;;;21.80;9.77;;;-3.20;1.00;;;;;;5035698;28;20386;-55
2023/02/09 02:24:28;;;;;;;27.00;10.02;;;-3.20;1.00;;;;;;5035583;28;20394;-55
2023/02/09 02:27:00;;;;;;;22.08;9.35;;;-3.20;1.00;;;;;;5035679;28;20442;-55
2023/02/09 02:29:35;;;;;;;23.90;9.90;;;;;;;;;;5035005;28;20399;-55
2023/02/09 02:32:10;;;;;;;23.92;10.18;;;;;;;;;;5035867;28;20390;-55
2023/02/09 02:34:36;;;;;;;26.70;9.32;;;;;;;;;;5035069;28;20394;-55
2023/02/09 02:37:25;;;;;;;23.20;9.97;;;;;;;;;;5035154;28;20395;-56
2023/02/09 02:39:57;;;;;;;22.80;9.50;;;;;;;;;;5035248;28;20414;-56
2023/02/09 02:42:48;;;;;;;24.30;10.77;;;-3.20;1.00;;;;;;5034832;28;20399;-55
2023/02/09 02:45:20;;;;;;;23.50;9.20;;;-3.40;1.00;;;;;;5035313;28;20417;-56
2023/02/09 02:48:16;;;;;;;25.55;10.73;;;-3.50;1.00;;;;;;5035084;28;20437;-55
2023/02/09 02:51:03;;;;;;;24.65;9.65;;;-3.60;1.00;;;;;;5034226;28;20409;-56
2023/02/09 02:53:32;;;;;;;26.15;10.20;;;-3.70;99.90;;;;;;5034473;28;20482;-56
2023/02/09 02:56:11;;;;;;;24.60;9.30;;;-3.60;1.00;;;;;;5035685;28;20434;-56
2023/02/09 02:58:41;;;;;;;31.30;10.45;;;-3.70;99.90;;;;;;5034246;28;20401;-56
2023/02/09 03:01:09;;;;;;;25.90;10.50;;;-3.60;99.90;;;;;;5035068;28;20457;-55
2023/02/09 03:03:36;;;;;;;21.90;9.02;;;-3.50;99.90;;;;;;5034412;28;20394;-55
2023/02/09 03:06:04;;;;;;;20.70;9.30;;;-3.50;99.90;;;;;;5016210;28;20570;-56
2023/02/09 03:08:29;;;;;;;22.20;9.82;;;-3.50;47.00;;;;;;5031061;28;20445;-55
2023/02/09 03:10:55;;;;;;;20.80;9.20;;;-3.60;1.00;;;;;;5031754;28;21359;-55
2023/02/09 03:13:45;;;;;;;23.25;9.88;;;-3.70;1.00;;;;;;5031244;28;20893;-55
2023/02/09 03:16:26;;;;;;;19.27;9.38;;;-3.70;1.00;;;;;;5031752;28;20832;-56
2023/02/09 03:19:30;;;;;;;24.07;9.73;;;-3.70;1.00;;;;;;5031906;28;20403;-56
2023/02/09 03:22:14;;;;;;;22.15;9.50;;;-3.80;1.00;;;;;;4976722;28;20417;-56
2023/02/09 03:24:53;;;;;;;27.35;9.68;;;-3.70;99.90;;;;;;5031701;28;20876;-56
2023/02/09 03:27:23;;;;;;;24.58;9.77;;;-3.70;99.90;;;;;;5031516;28;20410;-56
2023/02/09 03:29:54;;;;;;;28.98;10.15;;;-3.70;1.00;;;;;;5031793;28;20411;-55
2023/02/09 03:32:21;;;;;;;23.45;9.80;;;-3.50;1.00;;;;;;5031152;28;20394;-56
2023/02/09 03:34:47;;;;;;;27.60;10.77;;;-3.50;1.00;;;;;;5031358;28;20767;-56
2023/02/09 03:37:12;;;;;;;24.67;9.53;;;-3.60;1.00;;;;;;5031450;28;20426;-56
2023/02/09 03:39:38;;;;;;;27.40;11.00;;;-3.60;1.00;;;;;;5030916;28;20461;-56
2023/02/09 03:42:04;;;;;;;24.33;10.10;;;-3.70;99.90;;;;;;5031326;28;20395;-55
2023/02/09 03:44:32;;;;;;;28.10;9.20;;;-3.60;99.90;;;;;;5030950;28;20406;-56
2023/02/09 03:47:01;;;;;;;23.08;9.45;;;-3.70;1.00;;;;;;5031813;28;20431;-56
2023/02/09 03:49:30;;;;;;;25.65;9.73;;;-3.80;1.00;;;;;;5013094;28;20430;-55
2023/02/09 03:51:59;;;;;;;20.77;8.90;;;-3.70;10.70;;;;;;5031730;28;20375;-56
2023/02/09 03:54:28;;;;;;;26.88;9.20;;;-3.70;99.90;;;;;;5030419;28;20411;-56
2023/02/09 03:56:54;;;;;;;23.15;9.18;;;-3.50;85.90;;;;;;5031493;28;20425;-57
2023/02/09 03:59:20;;;;;;;19.55;8.93;;;-3.60;1.00;;;;;;5022881;28;20411;-56
2023/02/09 04:01:47;;;;;;;22.50;9.15;;;-3.60;1.00;;;;;;5015197;28;20385;-56
2023/02/09 04:04:12;;;;;;;25.48;9.10;;;-3.60;99.90;;;;;;5011555;28;20476;-56
2023/02/09 04:06:39;;;;;;;24.77;10.18;;;-3.70;99.90;;;;;;5010712;28;20483;-56
2023/02/09 04:09:05;;;;;;;21.75;8.70;;;-3.70;99.90;;;;;;5030533;28;20896;-56
2023/02/09 04:11:31;;;;;;;21.48;9.32;;;-3.80;99.90;;;;;;5030400;28;20478;-56
2023/02/09 04:13:57;;;;;;;25.05;9.63;;;-3.80;99.90;;;;;;5031125;28;20478;-56
2023/02/09 04:16:23;;;;;;;22.88;9.43;;;-3.90;1.00;;;;;;5030202;28;20838;-56
2023/02/09 04:18:51;;;;;;;28.55;9.60;;;-3.80;1.00;;;;;;5030239;28;20391;-55
2023/02/09 04:21:17;;;;;;;20.38;9.18;;;-3.80;1.00;;;;;;5030443;28;20407;-56
2023/02/09 04:23:43;;;;;;;27.50;10.60;;;-3.80;99.90;;;;;;5011797;28;20392;-56
2023/02/09 04:26:09;;;;;;;21.60;9.17;;;-3.80;1.00;;;;;;5030340;28;20796;-55
2023/02/09 04:28:34;;;;;;;23.50;8.20;;;-3.80;1.00;;;;;;5029758;28;20432;-55
2023/02/09 04:31:00;;;;;;;31.98;10.07;;;-3.60;1.00;;;;;;5012398;28;20485;-56
2023/02/09 04:33:26;;;;;;;24.63;10.33;;;-3.50;1.00;;;;;;5029734;28;20844;-55
2023/02/09 04:35:52;;;;;;;23.03;9.40;;;-3.50;99.90;;;;;;5030844;28;20375;-55
2023/02/09 04:38:19;;;;;;;23.05;9.40;;;-3.60;99.90;;;;;;5030385;28;20403;-55
2023/02/09 04:40:46;;;;;;;23.77;9.40;;;-3.70;36.90;;;;;;5029976;28;20892;-56
2023/02/09 04:43:12;;;;;;;24.92;11.15;;;-3.70;13.50;;;;;;5030114;28;20395;-55
2023/02/09 04:45:38;;;;;;;24.60;10.40;;;-3.70;1.00;;;;;;5029427;28;20403;-55
2023/02/09 04:48:05;;;;;;;24.00;9.73;;;-3.70;27.60;;;;;;5029864;28;20410;-55
2023/02/09 04:50:31;;;;;;;20.70;9.82;;;-3.60;99.90;;;;;;5011639;28;20418;-56
2023/02/09 04:52:57;;;;;;;25.15;9.30;;;-3.60;26.50;;;;;;5030156;28;20384;-56
2023/02/09 04:55:23;;;;;;;22.38;8.60;;;-3.50;1.00;;;;;;5029055;28;20426;-55
2023/02/09 05:00:33;;;;;;;26.38;9.57;;;-3.40;1.00;;;;;;5028282;28;20401;-55
2023/02/09 05:02:58;;;;;;;25.20;10.48;;;-3.40;99.90;;;;;;5029416;28;20387;-56
2023/02/09 05:05:25;;;;;;;20.80;8.77;;;-3.40;99.90;;;;;;5028941;28;20441;-55
2023/02/09 05:07:50;;;;;;;23.38;9.32;;;-3.40;99.90;;;;;;5026975;28;20425;-55
2023/02/09 05:10:16;;;;;;;21.20;9.70;;;-3.50;99.90;;;;;;5029852;28;20403;-56
2023/02/09 05:12:43;;;;;;;23.57;10.20;;;-2.70;99.90;;;;;;5025848;28;20921;-55
2023/02/09 05:15:09;;;;;;;25.75;10.00;;;-3.40;1.00;;;;;;5027013;28;20406;-55
2023/02/09 05:17:34;;;;;;;26.42;9.45;;;-3.30;1.00;;;;;;5020301;28;20427;-55
2023/02/09 05:20:00;;;;;;;25.65;9.98;;;-3.40;1.00;;;;;;5025319;28;20415;-55
2023/02/09 05:22:26;;;;;;;21.77;10.07;;;-3.20;1.00;;;;;;5025196;28;20407;-55
2023/02/09 05:24:52;;;;;;;23.63;9.57;;;-3.50;1.00;;;;;;5029007;28;20484;-55
2023/02/09 05:27:18;;;;;;;26.80;10.53;;;;;;;;;;5028115;28;20586;-55
2023/02/09 05:29:43;;;;;;;26.48;10.32;;;-3.50;99.90;;;;;;5022049;28;20399;-54
2023/02/09 05:32:09;;;;;;;25.75;11.18;;;-3.60;99.90;;;;;;5006931;28;20456;-54
2023/02/09 05:34:36;;;;;;;28.10;10.83;;;-3.70;1.00;;;;;;5021659;28;20432;-55
2023/02/09 05:37:01;;;;;;;21.02;8.90;;;-3.60;1.00;;;;;;5026417;28;20459;-55
2023/02/09 05:39:27;;;;;;;26.02;10.63;;;-3.60;34.20;;;;;;5024142;28;20395;-55
2023/02/09 05:44:37;;;;;;;24.85;9.75;;;-3.70;18.50;;;;;;5015595;28;20426;-55
2023/02/09 05:47:02;;;;;;;26.85;10.73;;;-3.70;99.90;;;;;;5025963;28;20803;-55
2023/02/09 05:49:28;;;;;;;28.03;10.40;;;-3.70;99.90;;;;;;5021280;28;20422;-55
2023/02/09 05:51:54;;;;;;;28.47;10.73;;;-3.70;99.90;;;;;;5025765;28;20876;-54
2023/02/09 05:54:20;;;;;;;24.07;9.90;;;-3.70;1.00;;;;;;5020752;28;20531;-55
2023/02/09 05:56:46;;;;;;;24.47;9.80;;;-3.80;1.00;;;;;;5021944;28;20439;-55
2023/02/09 05:59:13;;;;;;;23.92;10.18;;;-3.80;1.00;;;;;;5026492;28;20399;-55
2023/02/09 06:01:39;;;;;;;23.77;9.40;;;-3.80;52.80;;;;;;5015287;28;20406;-55
2023/02/09 06:04:05;;;;;;;22.30;10.20;;;-3.80;1.00;;;;;;5026034;28;20402;-55
2023/02/09 06:06:31;;;;;;;24.58;9.60;;;-3.80;85.30;;;;;;5023331;28;20422;-55
2023/02/09 06:08:57;;;;;;;27.25;11.50;;;-2.80;1.00;;;;;;5016407;28;20494;-55
2023/02/09 06:11:24;;;;;;;22.50;10.07;;;-3.90;99.90;;;;;;5019461;28;20404;-55
2023/02/09 06:13:49;;;;;;;27.70;13.10;;;-3.70;1.00;;;;;;5023142;28;20475;-55
2023/02/09 06:16:20;;;;;;;29.65;12.23;;;-3.70;1.00;;;;;;5027342;28;20725;-55
2023/02/09 06:18:45;;;;;;;21.38;9.63;;;-3.60;1.00;;;;;;5028249;28;20859;-55
2023/02/09 06:21:11;;;;;;;28.15;11.98;;;-3.70;99.90;;;;;;5028618;28;20395;-54
2023/02/09 06:23:37;;;;;;;25.25;11.35;;;-3.80;1.00;;;;;;5010609;28;20484;-55
2023/02/09 06:26:11;;;;;;;21.25;9.15;;;-3.90;1.00;;;;;;5029052;28;20387;-56
2023/02/09 06:28:37;;;;;;;23.92;10.07;;;-3.90;99.90;;;;;;5027543;28;20791;-55
2023/02/09 06:31:04;;;;;;;28.27;10.93;;;-3.90;99.90;;;;;;5029107;28;20390;-55
2023/02/09 06:33:32;;;;;;;26.55;11.38;;;-4.00;99.90;;;;;;5027690;28;20383;-55
2023/02/09 06:35:58;;;;;;;23.95;10.70;;;-4.00;1.00;;;;;;5028370;28;20391;-55
2023/02/09 06:38:30;;;;;;;24.08;10.00;;;-4.10;1.00;;;;;;5027634;28;20851;-56
2023/02/09 06:40:56;;;;;;;22.85;9.75;;;-4.10;1.00;;;;;;5030143;28;20480;-55
2023/02/09 06:43:25;;;;;;;26.42;9.88;;;-4.10;1.00;;;;;;5031518;28;20445;-55
2023/02/09 06:45:50;;;;;;;27.90;10.82;;;-4.10;1.00;;;;;;5032498;28;20403;-56
2023/02/09 06:48:16;;;;;;;26.83;11.27;;;-4.20;1.00;;;;;;5032228;28;20422;-55
2023/02/09 06:50:42;;;;;;;23.45;9.20;;;-4.30;1.00;;;;;;5031600;28;20397;-55
2023/02/09 06:53:07;;;;;;;28.98;10.15;;;-4.30;1.00;;;;;;5031918;28;20399;-55
2023/02/09 06:55:34;;;;;;;20.63;9.87;;;-4.20;1.00;;;;;;5031515;28;20395;-55
2023/02/09 06:57:59;;;;;;;26.42;11.80;;;-4.10;1.00;;;;;;5032463;28;20431;-55
2023/02/09 07:00:26;;;;;;;28.98;11.52;;;-4.10;1.00;;;;;;5030818;28;20421;-55
2023/02/09 07:02:52;;;;;;;24.02;10.25;;;-4.00;1.00;;;;;;5032335;28;20445;-55
2023/02/09 07:05:18;;;;;;;36.90;12.67;;;-4.00;1.00;;;;;;5003437;28;20901;-55
2023/02/09 07:07:44;;;;;;;28.10;11.03;;;-3.90;1.00;;;;;;5031204;28;20415;-55
2023/02/09 07:10:12;;;;;;;23.00;10.30;;;-3.80;1.00;;;;;;5031829;28;20442;-55
2023/02/09 07:12:39;;;;;;;31.05;11.80;;;-3.80;4.10;;;;;;5031433;28;20427;-55
2023/02/09 07:15:06;;;;;;;27.73;12.30;;;-3.60;1.00;;;;;;5031576;28;20463;-55
2023/02/09 07:17:32;;;;;;;28.20;12.35;;;-3.60;1.00;;;;;;5031213;28;22280;-55
2023/02/09 07:19:58;;;;;;;34.23;14.30;;;-3.50;1.00;;;;;;5031456;28;20481;-55
2023/02/09 07:22:24;;;;;;;31.73;13.73;;;-3.50;1.00;;;;;;5030677;28;20894;-55
2023/02/09 07:24:51;;;;;;;33.72;13.20;;;-3.60;1.00;;;;;;5031929;28;20437;-55
2023/02/09 07:27:17;;;;;;;27.23;12.35;;;-3.20;99.90;;;;;;5023603;28;20484;-55
2023/02/09 07:29:43;;;;;;;29.75;13.18;;;-3.10;1.00;;;;;;5030549;28;20497;-55
2023/02/09 07:32:10;;;;;;;36.85;14.20;;;-3.00;99.90;;;;;;5013817;28;20457;-55
2023/02/09 07:34:35;;;;;;;31.27;12.55;;;-2.90;99.90;;;;;;5030563;28;20475;-55
2023/02/09 07:37:01;;;;;;;30.63;12.93;;;-2.80;99.90;;;;;;5031111;28;20400;-55
2023/02/09 07:39:27;;;;;;;33.90;12.70;;;-2.70;99.90;;;;;;5008840;28;20483;-55
2023/02/09 07:41:53;;;;;;;33.90;14.20;;;-2.00;99.90;;;;;;5031605;28;20482;-55
2023/02/09 07:44:18;;;;;;;30.67;12.95;;;-2.30;99.90;;;;;;5031894;28;20413;-57
2023/02/09 07:46:44;;;;;;;30.85;13.63;;;-1.80;99.90;;;;;;5030656;28;20419;-57
2023/02/09 07:49:11;;;;;;;34.53;15.13;;;-0.70;1.00;;;;;;5031522;28;20454;-58
2023/02/09 07:51:37;;;;;;;31.08;13.80;;;0.40;99.90;;;;;;5029957;28;20410;-55
2023/02/09 07:54:03;;;;;;;27.92;13.70;;;1.80;99.90;;;;;;5031013;28;20414;-55
2023/02/09 07:56:29;;;;;;;33.65;13.90;;;2.50;93.20;;;;;;5030473;28;20423;-55
2023/02/09 07:58:56;;;;;;;29.27;12.97;;;3.20;1.00;;;;;;5031183;28;20433;-56
2023/02/09 08:01:23;;;;;;;31.63;13.43;;;3.90;99.90;;;;;;5022293;28;20409;-56
2023/02/09 08:03:50;;;;;;;27.98;12.80;;;4.50;99.90;;;;;;5030655;28;20402;-58
2023/02/09 08:06:31;;;;;;;29.45;13.60;;;4.80;99.90;;;;;;5029829;28;20577;-58
2023/02/09 08:08:59;;;;;;;31.15;12.45;;;4.90;99.90;;;;;;5030921;28;20407;-58
2023/02/09 08:11:54;;;;;;;31.42;14.45;;;5.50;99.90;;;;;;5030004;28;20398;-58
2023/02/09 08:14:24;;;;;;;32.35;14.98;;;5.60;1.00;;;;;;5030162;28;20765;-58
2023/02/09 08:17:18;;;;;;;31.27;13.65;;;5.80;99.90;;;;;;5030520;28;20415;-58
2023/02/09 08:19:43;;;;;;;29.38;14.40;;;6.30;99.90;;;;;;5024458;28;20763;-57
2023/02/09 08:22:09;;;;;;;29.15;14.77;;;7.30;99.90;;;;;;5030308;28;20441;-57
2023/02/09 08:24:35;;;;;;;33.78;16.55;;;7.70;99.90;;;;;;5022950;28;20404;-57
2023/02/09 08:27:01;;;;;;;31.13;15.40;;;8.50;99.90;;;;;;5029030;28;20499;-57
2023/02/09 08:29:27;;;;;;;31.47;16.33;;;8.80;99.90;;;;;;5029599;28;20410;-57
2023/02/09 08:31:52;;;;;;;31.17;15.77;;;8.90;99.90;;;;;;5030325;28;20387;-57
2023/02/09 08:34:18;;;;;;;33.37;16.50;;;9.00;99.90;;;;;;5030456;28;20386;-59
2023/02/09 08:36:44;;;;;;;33.50;17.60;;;9.40;99.90;;;;;;5029345;28;20395;-57
2023/02/09 08:39:09;;;;;;;31.63;18.80;;;9.70;99.90;;;;;;5030318;28;20729;-57
2023/02/09 08:41:35;;;;;;;31.70;19.90;;;9.80;99.90;;;;;;5029732;28;20390;-57
2023/02/09 08:44:03;;;;;;;32.45;19.73;;;9.60;99.90;;;;;;5030296;28;20568;-57
2023/02/09 08:46:29;;;;;;;36.20;18.83;;;9.20;99.90;;;;;;5029190;28;20447;-57
2023/02/09 08:48:55;;;;;;;34.25;19.90;;;;;;;;;;5030366;28;20780;-57
2023/02/09 08:51:21;;;;;;;33.60;19.77;;;;;;;;;;5029742;28;20402;-57
2023/02/09 08:53:50;;;;;;;33.95;19.63;;;;;;;;;;5029709;28;20399;-57
2023/02/09 08:56:17;;;;;;;30.90;19.40;;;9.80;99.90;;;;;;5030035;28;20437;-57
2023/02/09 08:58:43;;;;;;;35.03;18.88;;;9.90;99.90;;;;;;5029190;28;20433;-57
2023/02/09 09:01:09;;;;;;;33.67;18.77;;;9.80;99.90;;;;;;5029809;28;20391;-57
2023/02/09 09:03:35;;;;;;;31.55;17.60;;;10.30;99.90;;;;;;5028947;28;20406;-57
2023/02/09 09:06:03;;;;;;;31.95;16.80;;;9.40;99.90;;;;;;5029981;28;20402;-58
2023/02/09 09:08:30;;;;;;;34.03;19.10;;;8.50;99.90;;;;;;5028572;28;20426;-57
2023/02/09 09:10:56;;;;;;;31.30;17.77;;;8.90;99.90;;;;;;5030396;28;20402;-58
2023/02/09 09:13:25;;;;;;;36.80;18.00;;;9.60;99.90;;;;;;5011786;28;20680;-57
2023/02/09 09:15:52;;;;;;;33.40;18.65;;;9.40;99.90;;;;;;5029336;28;20399;-57
2023/02/09 09:18:18;;;;;;;34.40;18.13;;;9.80;99.90;;;;;;5029708;28;20427;-57
2023/02/09 09:20:44;;;;;;;32.70;18.35;;;9.80;99.90;;;;;;5029315;28;20386;-57
2023/02/09 09:23:11;;;;;;;38.30;20.10;;;9.20;99.90;;;;;;5029436;28;20445;-57
2023/02/09 09:25:38;;;;;;;29.42;18.98;;;10.40;99.90;;;;;;5029152;28;20402;-57
2023/02/09 09:28:04;;;;;;;34.38;18.38;;;10.70;99.90;;;;;;5029527;28;21029;-57
2023/02/09 09:30:30;;;;;;;32.43;17.97;;;10.50;99.90;;;;;;5028748;28;20482;-57
2023/02/09 09:32:56;;;;;;;33.30;18.75;;;9.90;99.90;;;;;;5029130;28;20395;-59
2023/02/09 09:35:21;;;;;;;37.85;20.75;;;11.30;99.90;;;;;;5011848;28;20407;-59
2023/02/09 09:37:47;;;;;;;33.03;19.67;;;11.40;99.90;;;;;;5028689;28;20399;-59
2023/02/09 09:40:20;;;;;;;40.00;23.00;;;11.50;99.90;;;;;;5029371;28;20429;-60
2023/02/09 09:42:53;;;;;;;33.83;22.55;;;12.20;99.90;;;;;;5028396;28;20898;-59
2023/02/09 09:45:22;;;;;;;36.22;23.88;;;12.30;99.90;;;;;;5029526;28;20395;-60
2023/02/09 09:47:49;;;;;;;36.72;22.45;;;12.50;99.90;;;;;;5028330;28;20421;-57
2023/02/09 09:50:25;;;;;;;36.05;23.92;;;11.90;99.90;;;;;;5029092;28;20395;-57
2023/02/09 09:53:07;;;;;;;37.90;23.90;;;11.30;99.90;;;;;;5029243;28;20405;-57
2023/02/09 09:55:33;;;;;;;35.90;23.75;;;11.40;99.90;;;;;;5028533;28;20426;-59
2023/02/09 09:58:02;;;;;;;36.33;23.77;;;11.60;99.90;;;;;;5029150;28;20402;-57
2023/02/09 10:00:36;;;;;;;41.65;24.17;;;10.90;99.90;;;;;;5028407;28;20926;-57
2023/02/09 10:03:03;;;;;;;34.30;23.27;;;10.60;99.90;;;;;;5028731;28;20467;-58
2023/02/09 10:05:37;;;;;;;37.80;24.10;;;10.90;99.90;;;;;;5028385;28;20390;-57
2023/02/09 10:08:22;;;;;;;36.42;22.65;;;11.00;99.90;;;;;;5028893;28;20445;-57
2023/02/09 10:11:09;;;;;;;42.20;23.73;;;11.00;99.90;;;;;;5028263;28;20402;-57
2023/02/09 10:13:50;;;;;;;37.42;22.30;;;11.00;99.90;;;;;;5025927;28;20396;-57
2023/02/09 10:16:25;;;;;;;35.75;22.48;;;11.50;99.90;;;;;;5031056;28;20399;-59
2023/02/09 10:18:53;;;;;;;39.13;22.65;;;11.70;99.90;;;;;;5033027;28;20528;-60
2023/02/09 10:21:20;;;;;;;35.40;23.40;;;11.60;99.90;;;;;;5033449;28;20905;-57
2023/02/09 10:23:47;;;;;;;34.90;22.00;;;11.30;99.90;;;;;;5031907;28;20375;-57
2023/02/09 10:26:21;;;;;;;38.88;22.45;;;10.70;99.90;;;;;;5032907;28;20406;-57
2023/02/09 10:29:07;;;;;;;39.78;23.10;;;11.10;99.90;;;;;;5031961;28;20409;-57
2023/02/09 10:31:41;;;;;;;34.30;22.67;;;12.10;99.90;;;;;;5031793;28;20425;-57
2023/02/09 10:34:07;;;;;;;39.87;23.00;;;12.50;99.90;;;;;;5033232;28;20416;-59
2023/02/09 10:36:38;;;;;;;37.22;23.80;;;12.80;99.90;;;;;;5031841;28;20403;-59
2023/02/09 10:39:10;;;;;;;35.40;23.23;;;13.40;99.90;;;;;;5014855;28;20407;-59
2023/02/09 10:41:38;;;;;;;35.17;24.40;;;12.90;99.90;;;;;;5014586;28;20399;-60
2023/02/09 10:44:21;;;;;;;38.78;24.23;;;12.40;99.90;;;;;;5032326;28;20405;-57
2023/02/09 10:46:47;;;;;;;36.10;22.95;;;13.10;99.90;;;;;;5031497;28;20426;-57
2023/02/09 10:49:53;;;;;;;36.50;23.23;;;12.80;99.90;;;;;;5014586;28;20410;-57
2023/02/09 10:52:22;;;;;;;35.05;24.15;;;12.70;99.90;;;;;;4916926;29;20487;-57
2023/02/09 10:54:55;;;;;;;41.47;24.33;;;12.80;99.90;;;;;;5017111;28;20395;-57
2023/02/09 10:57:37;;;;;;;36.33;23.85;;;13.20;99.90;;;;;;5032191;28;20465;-57
2023/02/09 11:00:16;;;;;;;36.55;23.05;;;14.00;99.90;;;;;;5032593;28;20371;-57
2023/02/09 11:02:53;;;;;;;36.40;23.92;;;13.60;99.90;;;;;;5031634;28;20451;-57
2023/02/09 11:05:25;;;;;;;35.65;22.33;;;13.30;99.90;;;;;;5014103;28;20408;-57
2023/02/09 11:08:20;;;;;;;37.55;23.40;;;13.30;99.90;;;;;;5031348;28;20411;-59
2023/02/09 11:10:59;;;;;;;37.13;23.55;;;12.30;99.90;;;;;;5031341;28;20429;-59
2023/02/09 11:13:26;;;;;;;32.58;22.05;;;12.50;99.90;;;;;;5031575;28;20393;-57
2023/02/09 11:16:14;;;;;;;31.37;21.10;;;13.40;99.90;;;;;;5032019;28;20399;-57
2023/02/09 11:18:44;;;;;;;32.60;21.42;;;13.40;99.90;;;;;;5030588;28;20429;-57
2023/02/09 11:21:31;;;;;;;35.40;21.70;;;13.10;99.90;;;;;;5031808;28;20490;-57
2023/02/09 11:24:06;;;;;;;32.97;19.73;;;11.30;99.90;;;;;;5032028;28;20405;-57
2023/02/09 11:26:59;;;;;;;32.60;19.73;;;10.70;99.90;;;;;;5030223;28;20430;-57
2023/02/09 11:29:39;;;;;;;31.63;20.75;;;10.00;99.90;;;;;;5031083;28;20407;-57
2023/02/09 11:32:08;;;;;;;32.70;20.20;;;9.60;99.90;;;;;;5031741;28;20380;-57
2023/02/09 11:34:40;;;;;;;31.67;20.80;;;10.00;99.90;;;;;;5031089;28;20383;-57
2023/02/09 11:37:28;;;;;;;32.30;20.40;;;10.70;99.90;;;;;;5031811;28;20407;-57
2023/02/09 11:40:06;;;;;;;33.10;21.30;;;10.70;99.90;;;;;;5031771;28;20441;-57
2023/02/09 11:42:43;;;;;;;33.70;20.42;;;10.20;99.90;;;;;;5030417;28;20470;-57
2023/02/09 11:45:12;;;;;;;32.80;20.30;;;9.40;99.90;;;;;;5031150;28;20406;-57
2023/02/09 11:48:19;;;;;;;33.03;19.52;;;8.60;99.90;;;;;;5030530;28;20449;-57
2023/02/09 11:51:06;;;;;;;29.90;18.17;;;7.90;99.90;;;;;;4930779;29;20427;-56
2023/02/09 11:53:54;;;;;;;31.95;17.88;;;7.80;99.90;;;;;;4930693;29;20507;-58
2023/02/09 11:56:23;;;;;;;31.98;19.05;;;7.80;99.90;;;;;;5007335;28;20951;-58
2023/02/09 11:58:58;;;;;;;32.17;18.40;;;8.80;99.90;;;;;;5030358;28;20399;-58
2023/02/09 12:01:51;;;;;;;28.58;16.17;;;8.00;99.90;;;;;;5031020;28;20975;-59
2023/02/09 12:04:29;;;;;;;32.08;17.80;;;8.10;99.90;;;;;;5031141;28;20429;-59
2023/02/09 12:07:03;;;;;;;32.20;17.90;;;8.10;99.90;;;;;;5030874;28;20498;-58
2023/02/09 12:09:47;;;;;;;35.75;18.45;;;7.90;99.90;;;;;;5027637;28;20426;-58
2023/02/09 12:12:18;;;;;;;37.97;18.63;;;7.70;99.90;;;;;;5030118;28;20765;-58
2023/02/09 12:15:00;;;;;;;32.42;18.70;;;7.40;99.90;;;;;;5029937;28;21189;-59
2023/02/09 12:17:34;;;;;;;35.13;18.92;;;7.40;99.90;;;;;;5030460;28;20415;-59
2023/02/09 12:20:01;;;;;;;30.13;17.20;;;7.80;99.90;;;;;;5030698;28;20498;-58
2023/02/09 12:22:32;;;;;;;32.60;17.02;;;7.90;99.90;;;;;;5030457;28;20529;-58
2023/02/09 12:25:04;;;;;;;31.90;16.98;;;7.90;99.90;;;;;;5023912;28;20395;-59
2023/02/09 12:27:31;;;;;;;31.02;16.98;;;7.80;99.90;;;;;;5029575;28;20426;-59
2023/02/09 12:29:56;;;;;;;30.85;17.42;;;7.50;99.90;;;;;;5030536;28;20383;-58
2023/02/09 12:32:42;;;;;;;30.93;17.50;;;7.40;99.90;;;;;;5030608;28;20406;-58
2023/02/09 12:35:39;;;;;;;26.92;17.30;;;8.30;99.90;;;;;;5029493;28;20530;-58
2023/02/09 12:38:17;;;;;;;30.17;15.88;;;7.40;99.90;;;;;;5008809;28;20542;-58
2023/02/09 12:40:42;;;;;;;36.83;18.17;;;7.20;99.90;;;;;;5029676;28;20387;-58
2023/02/09 12:43:25;;;;;;;32.13;16.80;;;7.10;99.90;;;;;;5030702;28;20405;-58
2023/02/09 12:46:12;;;;;;;31.25;16.42;;;7.00;99.90;;;;;;5023568;28;20497;-58
2023/02/09 12:49:10;;;;;;;32.03;17.60;;;8.70;99.90;;;;;;5029143;28;20411;-58
2023/02/09 12:51:41;;;;;;;33.38;16.98;;;7.30;99.90;;;;;;5024907;28;20415;-58
2023/02/09 12:54:44;;;;;;;35.15;15.63;;;7.40;99.90;;;;;;5029247;28;20387;-58
2023/02/09 12:57:48;;;;;;;33.63;17.27;;;7.40;99.90;;;;;;5029215;28;20411;-58
2023/02/09 13:00:17;;;;;;;34.03;16.50;;;7.30;99.90;;;;;;5023918;28;20402;-58
2023/02/09 13:02:48;;;;;;;33.72;17.30;;;7.30;99.90;;;;;;5028763;28;20434;-58
2023/02/09 13:05:35;;;;;;;39.10;18.63;;;7.30;99.90;;;;;;5029039;28;20397;-58
2023/02/09 13:08:10;;;;;;;30.33;16.30;;;8.00;99.90;;;;;;5029219;28;20584;-58